Data for 03/31/2008

Time Sea-Level Adjusted Pressure Absolute Pressure Temperature Relative Humidity Dew Point   
(mb) (inHg) (mb) (inHg) (C) (F) (%) (C) (F)
00:05 1012 29.88 842 24.86 -3.7 25.3 95 -4.4 24.1
00:10 1012 29.88 842 24.86 -3.7 25.3 95 -4.4 24
00:15 1012 29.88 842 24.86 -3.8 25.2 95 -4.4 24
00:20 1012 29.88 842 24.86 -3.7 25.3 95 -4.4 24.2
00:25 1012 29.88 842 24.86 -3.7 25.4 95 -4.3 24.3
00:30 1012 29.88 842 24.86 -3.7 25.3 96 -4.3 24.2
00:35 1012 29.88 841 24.83 -3.6 25.5 96 -4.2 24.4
00:40 1012 29.88 841 24.83 -3.8 25.2 96 -4.3 24.2
00:45 1012 29.88 841 24.83 -3.8 25.1 96 -4.4 24.1
00:50 1012 29.88 841 24.83 -3.9 25 96 -4.4 24
00:55 1012 29.88 841 24.83 -3.9 25 96 -4.4 24.1
01:00 1012 29.88 841 24.83 -3.9 25 96 -4.4 24.1
01:05 1012 29.88 841 24.83 -3.9 25 96 -4.4 24.1
01:10 1012 29.88 841 24.83 -3.9 25.1 96 -4.4 24.1
01:15 1012 29.88 841 24.83 -3.9 25.1 96 -4.4 24.2
01:20 1012 29.88 841 24.83 -3.7 25.3 96 -4.2 24.4
01:25 1012 29.88 841 24.83 -3.7 25.4 96 -4.2 24.4
01:30 1012 29.88 841 24.83 -3.7 25.3 96 -4.2 24.4
01:35 1012 29.88 841 24.83 -3.7 25.3 96 -4.2 24.4
01:40 1012 29.88 841 24.83 -3.8 25.2 96 -4.3 24.3
01:45 1012 29.88 841 24.83 -3.9 25.1 97 -4.3 24.2
01:50 1012 29.88 841 24.83 -3.8 25.1 97 -4.3 24.3
01:55 1012 29.88 841 24.83 -3.8 25.2 97 -4.3 24.3
02:00 1012 29.88 841 24.83 -3.8 25.1 97 -4.3 24.3
02:05 1012 29.88 841 24.83 -3.8 25.1 97 -4.3 24.3
02:10 1012 29.88 841 24.83 -3.9 25 97 -4.3 24.2
02:15 1012 29.88 841 24.83 -3.9 25 97 -4.4 24.2
02:20 1012 29.88 841 24.83 -4.1 24.6 97 -4.5 23.9
02:25 1012 29.88 841 24.83 -4.1 24.6 97 -4.5 23.9
02:30 1012 29.88 841 24.83 -4.2 24.4 97 -4.6 23.8
02:35 1012 29.88 841 24.83 -4.3 24.3 98 -4.6 23.6
02:40 1012 29.88 841 24.83 -4.3 24.2 98 -4.6 23.7
02:45 1012 29.88 841 24.83 -4.4 24.1 98 -4.7 23.6
02:50 1012 29.88 841 24.83 -4.3 24.2 98 -4.5 23.9
02:55 1012 29.88 841 24.83 -4.2 24.4 98 -4.5 24
03:00 1012 29.88 842 24.86 -4.2 24.5 98 -4.4 24.1
03:05 1012 29.88 842 24.86 -4.3 24.3 99 -4.5 24
03:10 1012 29.88 842 24.86 -4.3 24.3 99 -4.5 24
03:15 1012 29.88 841 24.83 -4.4 24.1 99 -4.5 23.9
03:20 1012 29.88 841 24.83 -4.5 24 99 -4.6 23.6
03:25 1012 29.88 841 24.83 -4.6 23.7 99 -4.8 23.4
03:30 1012 29.88 841 24.83 -4.7 23.5 99 -4.9 23.2
03:35 1012 29.88 841 24.83 -4.7 23.5 99 -4.9 23.2
03:40 1012 29.88 841 24.83 -4.8 23.4 99 -4.9 23.1
03:45 1012 29.88 841 24.83 -4.8 23.3 99 -4.9 23.1
03:50 1012 29.88 841 24.83 -4.8 23.4 114 -3 26.6
03:55 1012 29.88 841 24.83 -4.7 23.5 164 2.1 35.7
04:00 1012 29.88 841 24.83 -4.5 23.8 164 2.2 36
04:05 1012 29.88 841 24.83 -4.6 23.8 164 2.2 36
04:10 1012 29.88 841 24.83 -4.6 23.7 164 2.2 35.9
04:15 1012 29.88 841 24.83 -4.4 24.1 164 2.4 36.3
04:20 1012 29.88 841 24.83 -4.5 23.9 164 2.3 36.2
04:25 1012 29.88 842 24.86 -4.8 23.3 165 2 35.6
04:30 1012 29.88 842 24.86 -4.9 23.1 164 1.8 35.3
04:35 1012 29.88 842 24.86 -5.2 22.7 165 1.6 34.9
04:40 1012 29.88 842 24.86 -5.2 22.6 165 1.5 34.7
04:45 1013 29.91 842 24.86 -5.1 22.8 165 1.6 34.9
04:50 1013 29.91 842 24.86 -5.2 22.6 165 1.5 34.8
04:55 1013 29.91 842 24.86 -5.5 22.1 165 1.3 34.3
05:00 1013 29.91 842 24.86 -5.6 21.9 165 1.1 34.1
05:05 1013 29.91 842 24.86 -5.7 21.7 165 1.1 33.9
05:10 1013 29.91 842 24.86 -5.8 21.6 165 1 33.8
05:15 1013 29.91 842 24.86 -5.8 21.5 165 0.9 33.7
05:20 1013 29.91 842 24.86 -5.9 21.4 165 0.9 33.6
05:25 1013 29.91 842 24.86 -5.9 21.4 165 0.8 33.5
05:30 1013 29.91 842 24.86 -5.9 21.4 165 0.8 33.5
05:35 1013 29.91 842 24.86 -5.8 21.6 165 1 33.8
05:40 1013 29.91 842 24.86 -5.8 21.6 165 1 33.8
05:45 1013 29.91 842 24.86 -5.7 21.8 165 1.1 33.9
05:50 1013 29.91 842 24.86 -5.7 21.8 165 1.1 33.9
05:55 1013 29.91 842 24.86 -5.7 21.7 165 1 33.8
06:00 1013 29.91 842 24.86 -5.6 21.9 165 1.1 34
06:05 1013 29.91 842 24.86 -5.6 22 165 1.2 34.1
06:10 1013 29.91 842 24.86 -5.5 22.1 165 1.3 34.3
06:15 1013 29.91 842 24.86 -5.5 22 165 1.2 34.2
06:20 1013 29.91 842 24.86 -5.8 21.6 165 0.9 33.7
06:25 1013 29.91 843 24.89 -5.8 21.5 165 0.9 33.6
06:30 1013 29.91 843 24.89 -5.8 21.5 165 0.9 33.6
06:35 1013 29.91 843 24.89 -5.7 21.7 165 1 33.9
06:40 1014 29.94 843 24.89 -5.7 21.8 165 1.1 33.9
06:45 1014 29.94 843 24.89 -5.8 21.7 165 1 33.8
06:50 1014 29.94 843 24.89 -5.9 21.4 165 0.8 33.5
06:55 1014 29.94 843 24.89 -6.1 21 165 0.6 33.1
07:00 1014 29.94 843 24.89 -6.3 20.6 165 0.4 32.7
07:05 1014 29.94 843 24.89 -6.3 20.7 165 0.4 32.8
07:10 1014 29.94 843 24.89 -6.4 20.5 165 0.4 32.6
07:15 1014 29.94 843 24.89 -6.5 20.4 165 0.3 32.5
07:20 1014 29.94 843 24.89 -6.5 20.2 165 0.2 32.3
07:25 1014 29.94 843 24.89 -6.6 20.1 165 0.1 32.2
07:30 1014 29.94 843 24.89 -6.6 20.1 165 0.1 32.2
07:35 1014 29.94 843 24.89 -6.6 20.1 165 0.1 32.1
07:40 1014 29.94 843 24.89 -6.7 20 165 0.1 32.1
07:45 1014 29.94 843 24.89 -6.7 20 165 0 32.1
07:50 1014 29.94 844 24.92 -6.5 20.2 165 0.2 32.3
07:55 1014 29.94 844 24.92 -6.4 20.4 165 0.3 32.5
08:00 1014 29.94 844 24.92 -6.5 20.3 165 0.2 32.3
08:05 1015 29.97 844 24.92 -6.6 20.1 165 0.1 32.1
08:10 1015 29.97 844 24.92 -6.7 19.9 165 -0 31.9
08:15 1015 29.97 844 24.92 -6.8 19.8 165 -0.1 31.9
08:20 1015 29.97 844 24.92 -6.7 19.9 165 -0 32
08:25 1015 29.97 844 24.92 -6.8 19.8 165 -0 31.9
08:30 1015 29.97 844 24.92 -6.8 19.8 165 -0.1 31.9
08:35 1015 29.97 844 24.92 -6.7 19.9 165 -0 32
08:40 1015 29.97 844 24.92 -6.7 19.9 165 0 32
08:45 1015 29.97 844 24.92 -6.7 19.9 165 -0 32
08:50 1015 29.97 844 24.92 -6.7 19.9 165 -0 31.9
08:55 1015 29.97 844 24.92 -6.8 19.8 165 -0.1 31.9
09:00 1015 29.97 844 24.92 -6.9 19.6 165 -0.2 31.7
09:05 1015 29.97 845 24.95 -7 19.5 165 -0.3 31.5
09:10 1015 29.97 845 24.95 -7 19.4 165 -0.3 31.5
09:15 1015 29.97 845 24.95 -7.1 19.3 165 -0.4 31.3
09:20 1016 30 845 24.95 -6.9 19.6 165 -0.2 31.6
09:25 1016 30 845 24.95 -6.8 19.7 165 -0.1 31.7
09:30 1016 30 845 24.95 -6.9 19.6 165 -0.2 31.7
09:35 1016 30 845 24.95 -7 19.5 165 -0.3 31.5
09:40 1016 30 845 24.95 -6.9 19.6 165 -0.2 31.6
09:45 1016 30 845 24.95 -7 19.5 165 -0.3 31.5
09:50 1016 30 845 24.95 -7 19.5 165 -0.3 31.5
09:55 1016 30 845 24.95 -7 19.5 165 -0.3 31.5
10:00 1016 30 845 24.95 -6.9 19.5 165 -0.3 31.5
10:05 1016 30 845 24.95 -6.9 19.6 165 -0.2 31.7
10:10 1016 30 845 24.95 -6.9 19.6 165 -0.2 31.7
10:15 1016 30 845 24.95 -6.7 19.9 165 -0 32
10:20 1016 30 846 24.98 -6.5 20.3 165 0.2 32.4
10:25 1016 30 846 24.98 -6.1 21 165 0.6 33.1
10:30 1017 30.03 846 24.98 -5.5 22 165 1.2 34.2
10:35 1017 30.03 846 24.98 -4.9 23.2 165 1.9 35.4
10:40 1017 30.03 846 24.98 -4.8 23.4 165 2 35.7
10:45 1017 30.03 846 24.98 -4.8 23.4 165 2 35.6
10:50 1017 30.03 846 24.98 -5 23.1 165 1.8 35.3
10:55 1017 30.03 846 24.98 -5.1 22.8 165 1.7 35
11:00 1017 30.03 847 25.01 -5.1 22.8 165 1.6 35
11:05 1017 30.03 847 25.01 -4.9 23.1 165 1.9 35.3
11:10 1018 30.06 847 25.01 -4.7 23.5 165 2.1 35.7
11:15 1018 30.06 847 25.01 -4.8 23.3 165 2 35.6
11:20 1018 30.06 847 25.01 -4.8 23.4 165 2 35.6
11:25 1018 30.06 847 25.01 -4.7 23.5 165 2.1 35.8
11:30 1018 30.06 847 25.01 -4.5 23.8 165 2.3 36.1
11:35 1018 30.06 847 25.01 -4.8 23.4 165 2 35.6
11:40 1018 30.06 847 25.01 -5.1 22.9 165 1.7 35.1
11:45 1018 30.06 847 25.01 -4.8 23.3 165 2 35.5
11:50 1018 30.06 847 25.01 -4.8 23.4 165 2 35.6
11:55 1018 30.06 847 25.01 -4.6 23.8 165 2.2 36
12:00 1018 30.06 847 25.01 -4.8 23.3 165 2 35.5
12:05 1018 30.06 848 25.04 -4.6 23.7 165 2.2 35.9
12:10 1018 30.06 848 25.04 -4.7 23.5 165 2.1 35.8
12:15 1018 30.06 848 25.04 -5 23 165 1.8 35.2
12:20 1018 30.06 848 25.04 -5.1 22.8 165 1.7 35
12:25 1018 30.06 848 25.04 -5.1 22.8 165 1.7 35
12:30 1019 30.09 848 25.04 -5.1 22.8 165 1.7 35
12:35 1019 30.09 848 25.04 -5.2 22.7 165 1.6 34.9
12:40 1019 30.09 848 25.04 -5.1 22.9 165 1.7 35.1
12:45 1019 30.09 848 25.04 -5 23 165 1.8 35.2
12:50 1019 30.09 848 25.04 -5.1 22.8 165 1.7 35
12:55 1019 30.09 848 25.04 -4.8 23.4 165 2 35.7
13:00 1019 30.09 848 25.04 -4.7 23.5 165 2.1 35.7
13:05 1019 30.09 848 25.04 -4.6 23.6 165 2.2 35.9
13:10 1019 30.09 848 25.04 -4.7 23.6 165 2.1 35.8
13:15 1019 30.09 848 25.04 -4.5 24 165 2.3 36.2
13:20 1019 30.09 848 25.04 -4.2 24.4 164 2.6 36.6
13:25 1019 30.09 848 25.04 -0.9 30.3 164 6 42.9
13:30 1019 30.09 848 25.04 -2.9 26.8 164 4 39.2
13:35 1019 30.09 848 25.04 -3.5 25.7 165 3.4 38
13:40 1019 30.09 848 25.04 -3.7 25.3 151 1.9 35.3
13:45 1019 30.09 848 25.04 -3.7 25.3 100 -3.7 25.3
13:50 1019 30.09 848 25.04 -3.6 25.6 91 -4.9 23.2
13:55 1019 30.09 848 25.04 -3.3 26 89 -4.9 23.2
14:00 1019 30.09 848 25.04 -3.2 26.2 88 -4.9 23.3
14:05 1019 30.09 849 25.07 -2.9 26.8 88 -4.6 23.7
14:10 1019 30.09 849 25.07 -2.9 26.7 85 -5.2 22.7
14:15 1019 30.09 849 25.07 -3.4 25.9 85 -5.5 22.1
14:20 1019 30.09 849 25.07 -3.4 25.9 85 -5.6 21.9
14:25 1019 30.09 849 25.07 -4 24.9 86 -6 21.2
14:30 1019 30.09 849 25.07 -4.4 24.1 88 -6.1 21
14:35 1019 30.09 849 25.07 -4.2 24.4 86 -6.2 20.9
14:40 1019 30.09 849 25.07 -4.3 24.2 85 -6.5 20.3
14:45 1019 30.09 849 25.07 -4.2 24.5 82 -6.7 19.9
14:50 1019 30.09 849 25.07 -3.9 25 83 -6.4 20.5
14:55 1019 30.09 849 25.07 -3.7 25.3 78 -7 19.4
15:00 1019 30.09 849 25.07 -3.5 25.7 74 -7.4 18.6
15:05 1019 30.09 849 25.07 -3.6 25.5 72 -7.9 17.8
15:10 1019 30.09 849 25.07 -3.6 25.5 71 -8.1 17.4
15:15 1019 30.09 849 25.07 -3.3 26 69 -8.2 17.2
15:20 1019 30.09 849 25.07 -3.3 26 69 -8.3 17.1
15:25 1019 30.09 848 25.04 -2.8 26.9 65 -8.5 16.6
15:30 1019 30.09 848 25.04 -2.6 27.3 63 -8.7 16.3
15:35 1019 30.09 848 25.04 -2.3 27.9 62 -8.6 16.5
15:40 1019 30.09 849 25.07 -2.6 27.3 59 -9.5 15
15:45 1019 30.09 849 25.07 -2.4 27.7 58 -9.6 14.7
15:50 1019 30.09 849 25.07 -2 28.4 58 -9.2 15.5
15:55 1019 30.09 848 25.04 -1.5 29.4 53 -9.7 14.5
16:00 1019 30.09 849 25.07 -1.7 28.9 54 -9.9 14.2
16:05 1019 30.09 848 25.04 -2 28.4 55 -10 14
16:10 1019 30.09 848 25.04 -1.9 28.6 53 -10.2 13.7
16:15 1019 30.09 848 25.04 -1.8 28.7 53 -10.3 13.5
16:20 1019 30.09 849 25.07 -2.2 28.1 54 -10.4 13.3
16:25 1019 30.09 849 25.07 -2.2 28.1 54 -10.3 13.4
16:30 1019 30.09 849 25.07 -2.2 28 52 -10.7 12.7
16:35 1019 30.09 849 25.07 -2.3 27.8 53 -10.7 12.7
16:40 1019 30.09 849 25.07 -2.1 28.2 51 -10.9 12.5
16:45 1019 30.09 849 25.07 -2.2 28 51 -11.1 12
16:50 1019 30.09 849 25.07 -2.1 28.2 50 -11.1 12.1
16:55 1019 30.09 849 25.07 -1.9 28.5 51 -10.9 12.4
17:00 1019 30.09 849 25.07 -1.9 28.6 48 -11.4 11.4
17:05 1019 30.09 849 25.07 -2.2 28 50 -11.2 11.8
17:10 1019 30.09 849 25.07 -1.6 29.1 49 -10.9 12.4
17:15 1019 30.09 849 25.07 -1.2 29.8 47 -11.2 11.8
17:20 1019 30.09 849 25.07 -1.3 29.7 46 -11.5 11.3
17:25 1020 30.12 849 25.07 -1.3 29.7 46 -11.5 11.4
17:30 1020 30.12 849 25.07 -1.1 30 46 -11.2 11.8
17:35 1020 30.12 849 25.07 -1.5 29.4 45 -11.8 10.8
17:40 1020 30.12 849 25.07 -1.7 29 46 -11.9 10.7
17:45 1020 30.12 849 25.07 -1.9 28.6 46 -12.1 10.1
17:50 1020 30.12 849 25.07 -2 28.5 46 -12.1 10.2
17:55 1020 30.12 849 25.07 -1.9 28.6 46 -12 10.4
18:00 1020 30.12 849 25.07 -1.6 29.1 44 -12.3 9.8
18:05 1020 30.12 849 25.07 -1.7 28.9 44 -12.3 9.8
18:10 1020 30.12 849 25.07 -1.6 29.2 44 -12.4 9.6
18:15 1020 30.12 849 25.07 -1.4 29.5 44 -12 10.4
18:20 1020 30.12 849 25.07 -1.3 29.7 43 -12.3 9.9
18:25 1020 30.12 849 25.07 -1.5 29.4 43 -12.5 9.4
18:30 1020 30.12 849 25.07 -1.5 29.3 43 -12.4 9.7
18:35 1020 30.12 849 25.07 -1.6 29.1 44 -12.3 9.8
18:40 1020 30.12 849 25.07 -1.6 29.1 45 -12.1 10.2
18:45 1020 30.12 849 25.07 -1.6 29.2 45 -12 10.3
18:50 1020 30.12 849 25.07 -1.5 29.3 44 -12.2 10
18:55 1020 30.12 849 25.07 -1.5 29.4 46 -11.7 10.9
19:00 1020 30.12 849 25.07 -1.5 29.3 46 -11.6 11.1
19:05 1020 30.12 849 25.07 -1.7 29 47 -11.5 11.4
19:10 1020 30.12 849 25.07 -1.8 28.8 48 -11.4 11.4
19:15 1020 30.12 849 25.07 -2.2 28.1 50 -11.2 11.8
19:20 1020 30.12 849 25.07 -2.4 27.7 51 -11.1 12
19:25 1020 30.12 849 25.07 -2.5 27.4 53 -10.9 12.5
19:30 1020 30.12 849 25.07 -2.6 27.2 55 -10.6 13
19:35 1020 30.12 849 25.07 -2.9 26.7 55 -10.7 12.8
19:40 1020 30.12 849 25.07 -3.2 26.3 57 -10.6 13
19:45 1020 30.12 849 25.07 -3.3 26.1 58 -10.4 13.2
19:50 1020 30.12 849 25.07 -3.4 25.8 58 -10.6 12.9
19:55 1020 30.12 849 25.07 -3.5 25.6 59 -10.5 13.1
20:00 1020 30.12 849 25.07 -3.5 25.6 59 -10.5 13
20:05 1020 30.12 849 25.07 -3.5 25.7 59 -10.4 13.3
20:10 1020 30.12 850 25.1 -3.6 25.6 59 -10.5 13
20:15 1020 30.12 850 25.1 -3.7 25.3 61 -10.3 13.5
20:20 1020 30.12 850 25.1 -4 24.8 62 -10.3 13.5
20:25 1020 30.12 850 25.1 -4.1 24.6 64 -9.9 14.1
20:30 1021 30.15 850 25.1 -4.3 24.3 66 -9.6 14.7
20:35 1021 30.15 850 25.1 -4.6 23.8 66 -9.9 14.1
20:40 1021 30.15 850 25.1 -4.8 23.4 64 -10.6 12.9
20:45 1021 30.15 850 25.1 -4.8 23.3 64 -10.7 12.8
20:50 1021 30.15 850 25.1 -4.9 23.2 65 -10.6 13
20:55 1021 30.15 850 25.1 -4.9 23.1 66 -10.4 13.3
21:00 1021 30.15 850 25.1 -5.1 22.9 67 -10.2 13.6
21:05 1021 30.15 850 25.1 -5.4 22.3 70 -10 13.9
21:10 1021 30.15 850 25.1 -5.6 21.9 72 -9.9 14.2
21:15 1021 30.15 850 25.1 -5.7 21.7 73 -9.8 14.4
21:20 1021 30.15 850 25.1 -5.8 21.6 74 -9.7 14.6
21:25 1021 30.15 850 25.1 -5.6 21.9 75 -9.5 15
21:30 1021 30.15 850 25.1 -5.7 21.8 75 -9.3 15.2
21:35 1021 30.15 850 25.1 -5.7 21.7 76 -9.3 15.3
21:40 1021 30.15 850 25.1 -5.7 21.7 76 -9.3 15.3
21:45 1021 30.15 850 25.1 -5.8 21.6 77 -9.2 15.4
21:50 1021 30.15 850 25.1 -5.8 21.6 76 -9.4 15.2
21:55 1021 30.15 850 25.1 -5.8 21.5 76 -9.4 15
22:00 1021 30.15 850 25.1 -5.9 21.3 76 -9.4 15
22:05 1021 30.15 850 25.1 -6.1 21 78 -9.4 15
22:10 1021 30.15 850 25.1 -6.3 20.7 78 -9.4 15
22:15 1021 30.15 850 25.1 -6.4 20.5 80 -9.4 15.2
22:20 1021 30.15 850 25.1 -6.5 20.3 80 -9.4 15
22:25 1021 30.15 850 25.1 -6.6 20.2 80 -9.4 15
22:30 1021 30.15 850 25.1 -6.6 20.1 80 -9.5 15
22:35 1021 30.15 850 25.1 -6.6 20.1 80 -9.6 14.8
22:40 1021 30.15 850 25.1 -6.5 20.3 79 -9.6 14.8
22:45 1021 30.15 850 25.1 -6.4 20.4 79 -9.6 14.8
22:50 1021 30.15 850 25.1 -6.3 20.6 78 -9.6 14.8
22:55 1021 30.15 850 25.1 -6.2 20.8 78 -9.5 15
23:00 1021 30.15 850 25.1 -6.5 20.3 79 -9.6 14.7
23:05 1021 30.15 850 25.1 -6.7 19.9 79 -9.8 14.4
23:10 1021 30.15 850 25.1 -6.7 19.9 80 -9.7 14.5
23:15 1021 30.15 850 25.1 -6.6 20.1 79 -9.6 14.7
23:20 1021 30.15 850 25.1 -6.6 20.2 80 -9.5 14.9
23:25 1021 30.15 850 25.1 -6.5 20.4 80 -9.4 15
23:30 1021 30.15 850 25.1 -6.6 20.2 80 -9.5 14.9
23:35 1021 30.15 850 25.1 -6.8 19.8 80 -9.7 14.6
23:40 1021 30.15 850 25.1 -6.8 19.7 80 -9.7 14.5
23:45 1021 30.15 850 25.1 -7 19.4 80 -9.9 14.2
23:50 1021 30.15 850 25.1 -7.2 19.1 80 -10 14
23:55 1021 30.15 850 25.1 -7.2 19 80 -10.1 13.9
24:00 1021 30.15 850 25.1 -7.3 19 80 -10.1 13.8